createdAt,value
2023-05-21T00:00:21.333Z,24.26
2023-05-21T00:01:21.395Z,24.25
2023-05-21T00:02:21.444Z,24.26
2023-05-21T00:03:21.573Z,24.26
2023-05-21T00:04:21.527Z,24.25
2023-05-21T00:05:21.579Z,24.25
2023-05-21T00:06:21.633Z,24.25
2023-05-21T00:07:21.614Z,24.24
2023-05-21T00:08:21.648Z,24.24
2023-05-21T00:09:21.667Z,24.25
2023-05-21T00:10:21.705Z,24.24
2023-05-21T00:11:21.799Z,24.24
2023-05-21T00:12:21.810Z,24.24
2023-05-21T00:13:21.854Z,24.24
2023-05-21T00:14:21.867Z,24.24
2023-05-21T00:15:21.910Z,24.23
2023-05-21T00:16:22.001Z,24.24
2023-05-21T00:17:22.053Z,24.23
2023-05-21T00:18:22.005Z,24.23
2023-05-21T00:19:22.047Z,24.23
2023-05-21T00:20:22.158Z,24.23
2023-05-21T00:21:23.242Z,24.23
2023-05-21T00:22:22.259Z,24.22
2023-05-21T00:23:22.304Z,24.22
2023-05-21T00:24:22.347Z,24.22
2023-05-21T00:25:22.349Z,24.21
2023-05-21T00:26:22.383Z,24.22
2023-05-21T00:27:22.399Z,24.21
2023-05-21T00:28:22.449Z,24.21
2023-05-21T00:29:22.457Z,24.21
2023-05-21T00:30:22.519Z,24.21
2023-05-21T00:31:22.543Z,24.21
2023-05-21T00:32:22.643Z,24.21
2023-05-21T00:33:22.582Z,24.21
2023-05-21T00:34:22.605Z,24.21
2023-05-21T00:35:22.636Z,24.21
2023-05-21T00:36:22.669Z,24.21
2023-05-21T00:37:22.695Z,24.21
2023-05-21T00:38:22.741Z,24.21
2023-05-21T00:39:22.766Z,24.20
2023-05-21T00:40:22.819Z,24.20
2023-05-21T00:41:22.826Z,24.20
2023-05-21T00:42:22.846Z,24.20
2023-05-21T00:43:22.897Z,24.20
2023-05-21T00:44:22.942Z,24.20
2023-05-21T00:45:22.957Z,24.20
2023-05-21T00:46:23.021Z,24.20
2023-05-21T00:47:23.096Z,24.20
2023-05-21T00:48:23.033Z,24.19
2023-05-21T00:49:23.035Z,24.19
2023-05-21T00:50:23.120Z,24.19
2023-05-21T00:51:23.099Z,24.19
2023-05-21T00:52:23.212Z,24.18
2023-05-21T00:53:23.178Z,24.18
2023-05-21T00:54:23.177Z,24.18
2023-05-21T00:55:23.195Z,24.18
2023-05-21T00:56:23.228Z,24.17
2023-05-21T00:57:23.259Z,24.18
2023-05-21T00:58:23.292Z,24.17
2023-05-21T00:59:23.293Z,24.18
2023-05-21T01:00:23.356Z,24.18
2023-05-21T01:01:23.379Z,24.17
2023-05-21T01:02:23.442Z,24.17
2023-05-21T01:03:23.577Z,24.17
2023-05-21T01:04:23.450Z,24.16
2023-05-21T01:05:23.506Z,24.17
2023-05-21T01:06:23.511Z,24.16
2023-05-21T01:07:23.530Z,24.16
2023-05-21T01:08:23.586Z,24.16
2023-05-21T01:09:23.581Z,24.16
2023-05-21T01:10:23.803Z,24.16
2023-05-21T01:11:23.724Z,24.16
2023-05-21T01:12:23.790Z,24.14
2023-05-21T01:13:23.776Z,24.15
2023-05-21T01:14:23.806Z,24.15
2023-05-21T01:15:23.704Z,24.15
2023-05-21T01:16:23.751Z,24.15
2023-05-21T01:17:23.792Z,24.15
2023-05-21T01:18:23.798Z,24.14
2023-05-21T01:19:23.844Z,24.15
2023-05-21T01:20:23.961Z,24.14
2023-05-21T01:21:23.845Z,24.14
2023-05-21T01:22:23.836Z,24.13
2023-05-21T01:23:23.899Z,24.14
2023-05-21T01:24:23.970Z,24.14
2023-05-21T01:25:24.101Z,24.12
2023-05-21T01:26:24.210Z,24.13
2023-05-21T01:27:24.373Z,24.14
2023-05-21T01:28:24.496Z,24.13
2023-05-21T01:29:24.636Z,24.13
2023-05-21T01:30:24.782Z,24.13
2023-05-21T01:31:24.912Z,24.12
2023-05-21T01:32:25.177Z,24.12
2023-05-21T01:33:25.206Z,24.13
2023-05-21T01:34:25.100Z,24.13
2023-05-21T01:35:25.104Z,24.12
2023-05-21T01:36:25.148Z,24.12
2023-05-21T01:37:25.150Z,24.12
2023-05-21T01:38:25.153Z,24.12
2023-05-21T01:39:25.211Z,24.12
2023-05-21T01:40:25.226Z,24.12
2023-05-21T01:41:25.235Z,24.12
2023-05-21T01:42:25.271Z,24.12
2023-05-21T01:43:25.245Z,24.11
2023-05-21T01:44:25.249Z,24.11
2023-05-21T01:45:25.271Z,24.10
2023-05-21T01:46:25.346Z,24.10
2023-05-21T01:47:25.301Z,24.10
2023-05-21T01:48:25.270Z,24.10
2023-05-21T01:49:25.278Z,24.10
2023-05-21T01:50:25.291Z,24.10
2023-05-21T01:51:25.269Z,24.10
2023-05-21T01:52:25.284Z,24.09
2023-05-21T01:53:25.314Z,24.10
2023-05-21T01:54:25.282Z,24.10
2023-05-21T01:55:25.267Z,24.10
2023-05-21T01:56:25.280Z,24.09
2023-05-21T01:57:25.302Z,24.10
2023-05-21T01:58:25.260Z,24.09
2023-05-21T01:59:25.372Z,24.09
2023-05-21T02:00:25.484Z,24.09
2023-05-21T02:01:25.549Z,24.09
2023-05-21T02:02:25.722Z,24.10
2023-05-21T02:03:25.666Z,24.08
2023-05-21T02:04:25.552Z,24.09
2023-05-21T02:05:25.661Z,24.08
2023-05-21T02:06:25.787Z,24.08
2023-05-21T02:07:25.751Z,24.08
2023-05-21T02:08:25.736Z,24.08
2023-05-21T02:09:25.736Z,24.08
2023-05-21T02:10:25.723Z,24.08
2023-05-21T02:11:25.721Z,24.08
2023-05-21T02:12:25.770Z,24.07
2023-05-21T02:13:26.849Z,24.08
2023-05-21T02:14:25.749Z,24.07
2023-05-21T02:15:25.750Z,24.07
2023-05-21T02:16:25.784Z,24.08
2023-05-21T02:17:25.791Z,24.07
2023-05-21T02:18:25.748Z,24.07
2023-05-21T02:19:25.786Z,24.07
2023-05-21T02:20:25.768Z,24.07
2023-05-21T02:21:25.768Z,24.06
2023-05-21T02:22:25.728Z,24.06
2023-05-21T02:23:25.772Z,24.07
2023-05-21T02:24:25.762Z,24.06
2023-05-21T02:25:25.847Z,24.06
2023-05-21T02:26:25.846Z,24.06
2023-05-21T02:27:25.843Z,24.05
2023-05-21T02:28:25.828Z,24.06
2023-05-21T02:29:25.837Z,24.05
2023-05-21T02:30:25.932Z,24.06
2023-05-21T02:31:25.970Z,24.05
2023-05-21T02:32:26.060Z,24.05
2023-05-21T02:33:25.974Z,24.06
2023-05-21T02:34:26.085Z,24.05
2023-05-21T02:35:25.977Z,24.05
2023-05-21T02:36:26.046Z,24.05
2023-05-21T02:37:26.122Z,24.04
2023-05-21T02:38:26.237Z,24.04
2023-05-21T02:39:26.327Z,24.04
2023-05-21T02:40:26.353Z,24.04
2023-05-21T02:41:26.340Z,24.04
2023-05-21T02:42:26.321Z,24.04
2023-05-21T02:43:26.341Z,24.04
2023-05-21T02:44:26.335Z,24.03
2023-05-21T02:45:26.433Z,24.04
2023-05-21T02:46:26.560Z,24.04
2023-05-21T02:47:26.750Z,24.03
2023-05-21T02:48:26.683Z,24.03
2023-05-21T02:49:26.650Z,24.03
2023-05-21T02:50:26.710Z,24.02
2023-05-21T02:51:26.723Z,24.02
2023-05-21T02:52:26.755Z,24.03
2023-05-21T02:53:26.848Z,24.02
2023-05-21T02:54:26.928Z,24.02
2023-05-21T02:55:27.029Z,24.02
2023-05-21T02:56:27.078Z,24.02
2023-05-21T02:57:27.102Z,24.01
2023-05-21T02:58:27.095Z,24.02
2023-05-21T02:59:27.075Z,24.01
2023-05-21T03:00:27.100Z,24.02
2023-05-21T03:01:27.201Z,24.00
2023-05-21T03:02:27.275Z,24.01
2023-05-21T03:03:27.300Z,24.00
2023-05-21T03:04:27.186Z,24.00
2023-05-21T03:05:27.241Z,24.00
2023-05-21T03:06:27.226Z,24.00
2023-05-21T03:07:27.233Z,24.01
2023-05-21T03:08:27.221Z,24.00
2023-05-21T03:09:27.235Z,24.00
2023-05-21T03:10:27.361Z,24.00
2023-05-21T03:11:27.263Z,24.00
2023-05-21T03:12:27.304Z,23.99
2023-05-21T03:13:27.329Z,23.99
2023-05-21T03:14:27.298Z,23.99
2023-05-21T03:15:27.316Z,23.99
2023-05-21T03:16:27.419Z,23.99
2023-05-21T03:17:27.413Z,23.99
2023-05-21T03:18:27.407Z,23.99
2023-05-21T03:19:27.459Z,24.00
2023-05-21T03:20:27.430Z,23.99
2023-05-21T03:21:27.437Z,23.99
2023-05-21T03:22:27.426Z,23.99
2023-05-21T03:23:27.442Z,23.98
2023-05-21T03:24:27.456Z,23.99
2023-05-21T03:25:27.559Z,23.99
2023-05-21T03:26:27.580Z,23.99
2023-05-21T03:27:27.573Z,23.98
2023-05-21T03:28:27.637Z,23.98
2023-05-21T03:29:27.576Z,23.97
2023-05-21T03:30:27.620Z,23.98
2023-05-21T03:31:27.668Z,23.98
2023-05-21T03:32:27.632Z,23.98
2023-05-21T03:33:27.613Z,23.98
2023-05-21T03:34:27.622Z,23.98
2023-05-21T03:35:27.651Z,23.97
2023-05-21T03:36:27.726Z,23.97
2023-05-21T03:37:27.717Z,23.97
2023-05-21T03:38:27.790Z,23.97
2023-05-21T03:39:27.732Z,23.98
2023-05-21T03:40:27.713Z,23.97
2023-05-21T03:41:27.786Z,23.96
2023-05-21T03:42:27.914Z,23.96
2023-05-21T03:43:27.950Z,23.96
2023-05-21T03:44:27.964Z,23.96
2023-05-21T03:45:27.949Z,23.96
2023-05-21T03:46:28.028Z,23.96
2023-05-21T03:47:28.097Z,23.97
2023-05-21T03:48:28.040Z,23.96
2023-05-21T03:49:28.228Z,23.96
2023-05-21T03:50:28.471Z,23.96
2023-05-21T03:51:28.239Z,23.96
2023-05-21T03:52:28.329Z,23.96
2023-05-21T03:53:28.459Z,23.96
2023-05-21T03:54:28.438Z,23.96
2023-05-21T03:55:28.453Z,23.96
2023-05-21T03:56:28.461Z,23.96
2023-05-21T03:57:28.477Z,23.95
2023-05-21T03:58:28.444Z,23.96
2023-05-21T03:59:28.579Z,23.95
2023-05-21T04:00:28.535Z,23.96
2023-05-21T04:01:28.573Z,23.96
2023-05-21T04:02:28.632Z,23.96
2023-05-21T04:03:28.690Z,23.95
2023-05-21T04:04:28.631Z,23.95
2023-05-21T04:05:28.596Z,23.95
2023-05-21T04:06:28.605Z,23.95
2023-05-21T04:07:28.606Z,23.96
2023-05-21T04:08:28.627Z,23.95
2023-05-21T04:09:28.635Z,23.95
2023-05-21T04:10:28.652Z,23.95
2023-05-21T04:11:28.643Z,23.96
2023-05-21T04:12:28.701Z,23.96
2023-05-21T04:13:28.794Z,23.96
2023-05-21T04:14:28.703Z,23.95
2023-05-21T04:15:28.716Z,23.95
2023-05-21T04:16:28.913Z,23.95
2023-05-21T04:17:28.821Z,23.96
2023-05-21T04:18:28.746Z,23.96
2023-05-21T04:19:28.820Z,23.96
2023-05-21T04:20:28.795Z,23.95
2023-05-21T04:21:28.938Z,23.96
2023-05-21T04:22:28.842Z,23.96
2023-05-21T04:23:28.865Z,23.96
2023-05-21T04:24:28.858Z,23.95
2023-05-21T04:25:28.891Z,23.96
2023-05-21T04:26:28.880Z,23.95
2023-05-21T04:27:28.982Z,23.96
2023-05-21T04:28:29.041Z,23.97
2023-05-21T04:29:28.974Z,23.97
2023-05-21T04:30:28.988Z,23.97
2023-05-21T04:31:29.113Z,23.97
2023-05-21T04:32:29.113Z,23.96
2023-05-21T04:33:29.153Z,23.97
2023-05-21T04:34:29.256Z,23.97
2023-05-21T04:35:29.385Z,23.97
2023-05-21T04:36:29.391Z,23.97
2023-05-21T04:37:29.384Z,23.97
2023-05-21T04:38:29.435Z,23.98
2023-05-21T04:39:29.429Z,23.98
2023-05-21T04:40:29.849Z,23.97
2023-05-21T04:41:29.464Z,23.98
2023-05-21T04:42:29.536Z,23.98
2023-05-21T04:43:29.544Z,23.99
2023-05-21T04:44:29.496Z,23.99
2023-05-21T04:45:29.539Z,23.99
2023-05-21T04:46:29.636Z,23.99
2023-05-21T04:47:29.626Z,24.00
2023-05-21T04:48:29.635Z,24.00
2023-05-21T04:49:29.657Z,24.01
2023-05-21T04:50:29.676Z,24.01
2023-05-21T04:51:29.688Z,24.01
2023-05-21T04:52:29.705Z,24.02
2023-05-21T04:53:29.721Z,24.01
2023-05-21T04:54:29.708Z,24.02
2023-05-21T04:55:29.712Z,24.03
2023-05-21T04:56:29.747Z,24.04
2023-05-21T04:57:29.798Z,24.04
2023-05-21T04:58:29.860Z,24.05
2023-05-21T04:59:29.868Z,24.06
2023-05-21T05:00:29.873Z,24.07
2023-05-21T05:01:29.945Z,24.07
2023-05-21T05:02:29.867Z,24.08
2023-05-21T05:03:29.978Z,24.10
2023-05-21T05:04:29.929Z,24.11
2023-05-21T05:05:29.910Z,24.12
2023-05-21T05:06:29.917Z,24.13
2023-05-21T05:07:29.920Z,24.14
2023-05-21T05:08:29.951Z,24.16
2023-05-21T05:09:29.961Z,24.17
2023-05-21T05:10:30.005Z,24.18
2023-05-21T05:11:30.022Z,24.19
2023-05-21T05:12:30.009Z,24.20
2023-05-21T05:13:30.044Z,24.21
2023-05-21T05:14:30.084Z,24.22
2023-05-21T05:15:30.157Z,24.23
2023-05-21T05:16:30.252Z,24.23
2023-05-21T05:17:30.333Z,24.26
2023-05-21T05:18:30.381Z,24.26
2023-05-21T05:19:30.513Z,24.27
2023-05-21T05:20:30.415Z,24.28
2023-05-21T05:21:30.460Z,24.28
2023-05-21T05:22:30.501Z,24.30
2023-05-21T05:23:30.536Z,24.30
2023-05-21T05:24:30.590Z,24.31
2023-05-21T05:25:30.649Z,24.31
2023-05-21T05:26:30.708Z,24.32
2023-05-21T05:27:30.769Z,24.33
2023-05-21T05:28:30.835Z,24.34
2023-05-21T05:29:30.867Z,24.35
2023-05-21T05:30:30.945Z,24.37
2023-05-21T05:31:31.182Z,24.37
2023-05-21T05:32:31.122Z,24.38
2023-05-21T05:33:31.110Z,24.39
2023-05-21T05:34:31.176Z,24.39
2023-05-21T05:35:31.408Z,24.40
2023-05-21T05:36:31.447Z,24.40
2023-05-21T05:37:31.300Z,24.41
2023-05-21T05:38:31.476Z,24.41
2023-05-21T05:39:31.324Z,24.42
2023-05-21T05:40:31.424Z,24.41
2023-05-21T05:41:31.621Z,24.43
2023-05-21T05:42:31.473Z,24.43
2023-05-21T05:43:31.527Z,24.43
2023-05-21T05:44:31.591Z,24.44
2023-05-21T05:45:31.643Z,24.45
2023-05-21T05:46:31.749Z,24.47
2023-05-21T05:47:31.804Z,24.47
2023-05-21T05:48:31.828Z,24.49
2023-05-21T05:49:31.893Z,24.51
2023-05-21T05:50:31.962Z,24.53
2023-05-21T05:51:31.994Z,24.54
2023-05-21T05:52:32.049Z,24.56
2023-05-21T05:53:32.183Z,24.57
2023-05-21T05:54:32.152Z,24.58
2023-05-21T05:55:32.220Z,24.58
2023-05-21T05:56:32.265Z,24.59
2023-05-21T05:57:32.328Z,24.60
2023-05-21T05:58:32.366Z,24.62
2023-05-21T05:59:32.390Z,24.63
2023-05-21T06:00:32.436Z,24.63
2023-05-21T06:01:32.488Z,24.64
2023-05-21T06:02:32.622Z,24.66
2023-05-21T06:03:32.644Z,24.65
2023-05-21T06:04:32.635Z,24.65
2023-05-21T06:05:32.722Z,24.67
2023-05-21T06:06:32.723Z,24.68
2023-05-21T06:07:32.759Z,24.68
2023-05-21T06:08:32.813Z,24.68
2023-05-21T06:09:32.860Z,24.69
2023-05-21T06:10:32.903Z,24.69
2023-05-21T06:11:32.932Z,24.68
2023-05-21T06:12:32.975Z,24.69
2023-05-21T06:13:33.029Z,24.70
2023-05-21T06:14:33.062Z,24.72
2023-05-21T06:15:33.111Z,24.71
2023-05-21T06:16:33.203Z,24.72
2023-05-21T06:17:33.202Z,24.72
2023-05-21T06:18:33.247Z,24.73
2023-05-21T06:19:33.348Z,24.73
2023-05-21T06:20:33.348Z,24.73
2023-05-21T06:21:33.358Z,24.73
2023-05-21T06:22:33.431Z,24.74
2023-05-21T06:23:33.483Z,24.76
2023-05-21T06:24:33.493Z,24.76
2023-05-21T06:25:33.583Z,24.77
2023-05-21T06:26:33.568Z,24.79
2023-05-21T06:27:33.603Z,24.82
2023-05-21T06:28:33.623Z,24.83
2023-05-21T06:29:33.668Z,24.85
2023-05-21T06:30:33.688Z,24.86
2023-05-21T06:31:33.705Z,24.86
2023-05-21T06:32:33.856Z,24.87
2023-05-21T06:33:33.856Z,24.86
2023-05-21T06:34:33.815Z,24.88
2023-05-21T06:35:33.921Z,24.88
2023-05-21T06:36:33.875Z,24.89
2023-05-21T06:37:33.923Z,24.91
2023-05-21T06:38:33.935Z,24.92
2023-05-21T06:39:33.971Z,24.93
2023-05-21T06:40:33.988Z,24.94
2023-05-21T06:41:33.985Z,24.97
2023-05-21T06:42:34.014Z,24.98
2023-05-21T06:43:34.054Z,24.99
2023-05-21T06:44:34.092Z,24.98
2023-05-21T06:45:34.137Z,24.99
2023-05-21T06:46:34.136Z,25.01
2023-05-21T06:47:34.170Z,25.02
2023-05-21T06:48:34.172Z,25.04
2023-05-21T06:49:34.162Z,25.07
2023-05-21T06:50:34.181Z,25.07
2023-05-21T06:51:34.190Z,25.10
2023-05-21T06:52:34.190Z,25.10
2023-05-21T06:53:34.192Z,25.13
2023-05-21T06:54:34.203Z,25.14
2023-05-21T06:55:34.259Z,25.15
2023-05-21T06:56:34.214Z,25.15
2023-05-21T06:57:34.223Z,25.15
2023-05-21T06:58:34.260Z,25.14
2023-05-21T06:59:34.286Z,25.15
2023-05-21T07:00:34.262Z,25.13
2023-05-21T07:01:34.325Z,25.13
2023-05-21T07:02:34.386Z,25.13
2023-05-21T07:03:34.345Z,25.14
2023-05-21T07:04:34.293Z,25.14
2023-05-21T07:05:34.388Z,25.14
2023-05-21T07:06:34.403Z,25.14
2023-05-21T07:07:34.324Z,25.14
2023-05-21T07:08:34.334Z,25.15
2023-05-21T07:09:34.321Z,25.15
2023-05-21T07:10:34.333Z,25.17
2023-05-21T07:11:34.350Z,25.18
2023-05-21T07:12:34.359Z,25.18
2023-05-21T07:13:34.358Z,25.19
2023-05-21T07:14:34.363Z,25.20
2023-05-21T07:15:34.533Z,25.21
2023-05-21T07:16:34.511Z,25.22
2023-05-21T07:17:34.477Z,25.21
2023-05-21T07:18:34.383Z,25.22
2023-05-21T07:19:34.414Z,25.21
2023-05-21T07:20:34.371Z,25.22
2023-05-21T07:21:34.383Z,25.22
2023-05-21T07:22:34.359Z,25.24
2023-05-21T07:23:34.379Z,25.24
2023-05-21T07:24:34.383Z,25.26
2023-05-21T07:25:34.508Z,25.27
2023-05-21T07:26:34.445Z,25.29
2023-05-21T07:27:34.386Z,25.32
2023-05-21T07:28:34.409Z,25.33
2023-05-21T07:29:34.388Z,25.33
2023-05-21T07:30:34.413Z,25.34
2023-05-21T07:31:34.664Z,25.35
2023-05-21T07:32:34.463Z,25.35
2023-05-21T07:33:34.445Z,25.36
2023-05-21T07:34:34.418Z,25.37
2023-05-21T07:35:34.667Z,25.37
2023-05-21T07:36:34.451Z,25.38
2023-05-21T07:37:34.535Z,25.38
2023-05-21T07:38:34.522Z,25.41
2023-05-21T07:39:34.528Z,25.44
2023-05-21T07:40:34.572Z,25.46
2023-05-21T07:41:34.597Z,25.48
2023-05-21T07:42:34.651Z,25.49
2023-05-21T07:43:34.662Z,25.51
2023-05-21T07:44:34.735Z,25.52
2023-05-21T07:45:35.009Z,25.54
2023-05-21T07:46:34.921Z,25.54
2023-05-21T07:47:34.888Z,25.56
2023-05-21T07:48:35.784Z,25.58
2023-05-21T07:49:34.977Z,25.59
2023-05-21T07:50:35.043Z,25.60
2023-05-21T07:51:35.118Z,25.62
2023-05-21T07:52:35.191Z,25.65
2023-05-21T07:53:35.219Z,25.67
2023-05-21T07:54:35.291Z,25.70
2023-05-21T07:55:35.488Z,25.72
2023-05-21T07:56:35.382Z,25.74
2023-05-21T07:57:35.441Z,25.77
2023-05-21T07:58:35.491Z,25.79
2023-05-21T07:59:35.517Z,25.82
2023-05-21T08:00:35.550Z,25.84
2023-05-21T08:01:35.614Z,25.86
2023-05-21T08:02:35.733Z,25.88
2023-05-21T08:03:35.890Z,25.90
2023-05-21T08:04:36.953Z,25.90
2023-05-21T08:05:35.999Z,25.91
2023-05-21T08:06:35.794Z,25.89
2023-05-21T08:07:35.827Z,25.90
2023-05-21T08:08:35.858Z,25.90
2023-05-21T08:09:35.901Z,25.91
2023-05-21T08:10:35.931Z,25.90
2023-05-21T08:11:35.963Z,25.91
2023-05-21T08:12:35.996Z,25.93
2023-05-21T08:13:36.030Z,25.95
2023-05-21T08:14:36.058Z,25.97
2023-05-21T08:15:36.200Z,25.98
2023-05-21T08:16:36.219Z,26.00
2023-05-21T08:17:36.219Z,26.01
2023-05-21T08:18:36.201Z,26.01
2023-05-21T08:19:36.227Z,26.04
2023-05-21T08:20:36.228Z,26.05
2023-05-21T08:21:36.254Z,26.06
2023-05-21T08:22:36.261Z,26.07
2023-05-21T08:23:36.276Z,26.07
2023-05-21T08:24:36.317Z,26.07
2023-05-21T08:25:36.582Z,26.08
2023-05-21T08:26:36.353Z,26.08
2023-05-21T08:27:36.379Z,26.07
2023-05-21T08:28:36.409Z,26.10
2023-05-21T08:29:36.434Z,26.10
2023-05-21T08:30:36.442Z,26.13
2023-05-21T08:31:36.483Z,26.14
2023-05-21T08:32:36.452Z,26.14
2023-05-21T08:33:36.481Z,26.15
2023-05-21T08:34:36.486Z,26.16
2023-05-21T08:35:36.621Z,26.17
2023-05-21T08:36:36.484Z,26.18
2023-05-21T08:37:36.496Z,26.21
2023-05-21T08:38:36.529Z,26.23
2023-05-21T08:39:36.600Z,26.24
2023-05-21T08:40:36.501Z,26.25
2023-05-21T08:41:36.496Z,26.26
2023-05-21T08:42:37.562Z,26.29
2023-05-21T08:43:36.517Z,26.30
2023-05-21T08:44:36.495Z,26.31
2023-05-21T08:45:36.671Z,26.32
2023-05-21T08:46:36.540Z,26.33
2023-05-21T08:47:36.662Z,26.35
2023-05-21T08:48:36.572Z,26.37
2023-05-21T08:49:36.609Z,26.38
2023-05-21T08:50:36.658Z,26.39
2023-05-21T08:51:36.676Z,26.39
2023-05-21T08:52:36.712Z,26.42
2023-05-21T08:53:36.823Z,26.42
2023-05-21T08:54:36.813Z,26.45
2023-05-21T08:55:37.069Z,26.45
2023-05-21T08:56:36.968Z,26.47
2023-05-21T08:57:36.994Z,26.47
2023-05-21T08:58:36.999Z,26.48
2023-05-21T08:59:37.042Z,26.50
2023-05-21T09:00:37.080Z,26.51
2023-05-21T09:01:37.147Z,26.51
2023-05-21T09:02:37.203Z,26.52
2023-05-21T09:03:37.298Z,26.53
2023-05-21T09:04:37.363Z,26.54
2023-05-21T09:05:37.521Z,26.55
2023-05-21T09:06:37.411Z,26.56
2023-05-21T09:07:37.451Z,26.55
2023-05-21T09:08:37.498Z,26.55
2023-05-21T09:09:37.563Z,26.58
2023-05-21T09:10:37.639Z,26.57
2023-05-21T09:11:37.701Z,26.60
2023-05-21T09:12:37.677Z,26.61
2023-05-21T09:13:38.983Z,26.62
2023-05-21T09:14:37.810Z,26.64
2023-05-21T09:15:38.218Z,26.65
2023-05-21T09:16:37.994Z,26.66
2023-05-21T09:17:38.017Z,26.65
2023-05-21T09:18:38.003Z,26.66
2023-05-21T09:19:38.119Z,26.67
2023-05-21T09:20:38.096Z,26.68
2023-05-21T09:21:38.173Z,26.69
2023-05-21T09:22:38.222Z,26.70
2023-05-21T09:23:38.298Z,26.73
2023-05-21T09:24:38.360Z,26.72
2023-05-21T09:25:38.609Z,26.73
2023-05-21T09:26:38.457Z,26.74
2023-05-21T09:27:38.519Z,26.75
2023-05-21T09:28:38.587Z,26.77
2023-05-21T09:29:38.690Z,26.76
2023-05-21T09:30:38.807Z,26.78
2023-05-21T09:31:38.767Z,26.79
2023-05-21T09:32:38.819Z,26.80
2023-05-21T09:33:38.854Z,26.81
2023-05-21T09:34:38.903Z,26.81
2023-05-21T09:35:38.954Z,26.83
2023-05-21T09:36:38.986Z,26.82
2023-05-21T09:37:39.063Z,26.82
2023-05-21T09:38:39.131Z,26.82
2023-05-21T09:39:39.151Z,26.83
2023-05-21T09:40:39.244Z,26.83
2023-05-21T09:41:39.263Z,26.82
2023-05-21T09:42:39.309Z,26.83
2023-05-21T09:43:39.460Z,26.84
2023-05-21T09:44:39.399Z,26.84
2023-05-21T09:45:39.431Z,26.84
2023-05-21T09:46:39.596Z,26.85
2023-05-21T09:47:39.562Z,26.84
2023-05-21T09:48:39.586Z,26.85
2023-05-21T09:49:39.634Z,26.85
2023-05-21T09:50:39.670Z,26.85
2023-05-21T09:51:39.698Z,26.85
2023-05-21T09:52:41.984Z,26.85
2023-05-21T09:53:39.896Z,26.85
2023-05-21T09:54:39.972Z,26.86
2023-05-21T09:55:39.986Z,26.88
2023-05-21T09:56:40.034Z,26.87
2023-05-21T09:57:40.063Z,26.88
2023-05-21T09:58:40.098Z,26.89
2023-05-21T09:59:40.164Z,26.88
2023-05-21T10:00:40.241Z,26.88
2023-05-21T10:01:40.311Z,26.89
2023-05-21T10:02:40.342Z,26.88
2023-05-21T10:03:40.314Z,26.89
2023-05-21T10:04:40.387Z,26.91
2023-05-21T10:05:40.434Z,26.91
2023-05-21T10:06:40.465Z,26.92
2023-05-21T10:07:40.489Z,26.94
2023-05-21T10:08:40.514Z,26.95
2023-05-21T10:09:40.577Z,26.96
2023-05-21T10:10:40.596Z,26.96
2023-05-21T10:11:40.631Z,26.96
2023-05-21T10:12:40.644Z,26.98
2023-05-21T10:13:40.785Z,26.97
2023-05-21T10:14:40.708Z,26.97
2023-05-21T10:15:40.771Z,26.98
2023-05-21T10:16:40.856Z,26.98
2023-05-21T10:17:40.843Z,26.99
2023-05-21T10:18:40.882Z,26.99
2023-05-21T10:19:40.886Z,26.98
2023-05-21T10:20:40.916Z,26.98
2023-05-21T10:21:40.951Z,26.98
2023-05-21T10:22:40.973Z,26.98
2023-05-21T10:23:40.975Z,26.99
2023-05-21T10:24:41.006Z,26.99
2023-05-21T10:25:41.042Z,26.99
2023-05-21T10:26:41.081Z,27.00
2023-05-21T10:27:41.096Z,27.01
2023-05-21T10:28:41.131Z,27.01
2023-05-21T10:29:41.141Z,27.02
2023-05-21T10:30:41.185Z,27.02
2023-05-21T10:31:41.314Z,27.02
2023-05-21T10:32:41.285Z,27.03
2023-05-21T10:33:41.256Z,27.03
2023-05-21T10:34:41.276Z,27.01
2023-05-21T10:35:41.319Z,27.01
2023-05-21T10:36:41.318Z,27.00
2023-05-21T10:37:41.365Z,27.00
2023-05-21T10:38:41.385Z,26.98
2023-05-21T10:39:41.436Z,26.96
2023-05-21T10:40:41.452Z,26.96
2023-05-21T10:41:41.490Z,26.95
2023-05-21T10:42:41.519Z,26.95
2023-05-21T10:43:41.561Z,26.94
2023-05-21T10:44:41.595Z,26.93
2023-05-21T10:45:41.677Z,26.94
2023-05-21T10:46:41.680Z,26.94
2023-05-21T10:47:41.776Z,26.95
2023-05-21T10:48:41.734Z,26.96
2023-05-21T10:49:41.727Z,26.97
2023-05-21T10:50:41.782Z,26.97
2023-05-21T10:51:41.808Z,26.97
2023-05-21T10:52:41.847Z,26.97
2023-05-21T10:53:41.894Z,26.97
2023-05-21T10:54:41.919Z,26.96
2023-05-21T10:55:41.939Z,26.95
2023-05-21T10:56:41.979Z,26.94
2023-05-21T10:57:42.007Z,26.94
2023-05-21T10:58:42.046Z,26.93
2023-05-21T10:59:42.087Z,26.92
2023-05-21T11:00:42.116Z,26.91
2023-05-21T11:01:42.236Z,26.92
2023-05-21T11:02:42.265Z,26.90
2023-05-21T11:03:42.397Z,26.91
2023-05-21T11:04:42.301Z,26.90
2023-05-21T11:05:42.337Z,26.92
2023-05-21T11:06:42.372Z,26.93
2023-05-21T11:07:42.386Z,26.93
2023-05-21T11:08:42.428Z,26.91
2023-05-21T11:09:42.477Z,26.89
2023-05-21T11:10:42.514Z,26.89
2023-05-21T11:11:42.550Z,26.91
2023-05-21T11:12:42.599Z,26.92
2023-05-21T11:13:42.736Z,26.94
2023-05-21T11:14:42.671Z,26.94
2023-05-21T11:15:42.709Z,26.94
2023-05-21T11:16:42.985Z,26.94
2023-05-21T11:17:42.839Z,26.94
2023-05-21T11:18:42.833Z,26.94
2023-05-21T11:19:42.967Z,26.93
2023-05-21T11:20:42.889Z,26.93
2023-05-21T11:21:42.969Z,26.92
2023-05-21T11:22:42.961Z,26.92
2023-05-21T11:23:42.993Z,26.92
2023-05-21T11:24:43.037Z,26.91
2023-05-21T11:25:43.080Z,26.92
2023-05-21T11:26:43.179Z,26.92
2023-05-21T11:27:43.176Z,26.93
2023-05-21T11:28:43.363Z,26.93
2023-05-21T11:29:43.211Z,26.95
2023-05-21T11:30:43.301Z,26.95
2023-05-21T11:31:43.325Z,26.94
2023-05-21T11:32:43.311Z,26.95
2023-05-21T11:33:43.319Z,26.96
2023-05-21T11:34:43.360Z,26.95
2023-05-21T11:35:43.389Z,26.94
2023-05-21T11:36:43.448Z,26.94
2023-05-21T11:37:43.688Z,26.94
2023-05-21T11:38:43.488Z,26.92
2023-05-21T11:39:43.531Z,26.92
2023-05-21T11:40:43.565Z,26.92
2023-05-21T11:41:43.627Z,26.91
2023-05-21T11:42:43.637Z,26.91
2023-05-21T11:43:43.661Z,26.89
2023-05-21T11:44:43.721Z,26.88
2023-05-21T11:45:43.722Z,26.86
2023-05-21T11:46:43.791Z,26.85
2023-05-21T11:47:43.819Z,26.83
2023-05-21T11:48:43.849Z,26.82
2023-05-21T11:49:43.881Z,26.82
2023-05-21T11:50:43.919Z,26.81
2023-05-21T11:51:43.968Z,26.83
2023-05-21T11:52:44.008Z,26.84
2023-05-21T11:53:44.431Z,26.85
2023-05-21T11:54:44.110Z,26.87
2023-05-21T11:55:44.127Z,26.88
2023-05-21T11:56:44.227Z,26.89
2023-05-21T11:57:44.238Z,26.89
2023-05-21T11:58:44.227Z,26.89
2023-05-21T11:59:44.275Z,26.89
2023-05-21T12:00:44.302Z,26.88
2023-05-21T12:01:44.330Z,26.86
2023-05-21T12:02:44.405Z,26.88
2023-05-21T12:03:44.512Z,26.88
2023-05-21T12:04:44.602Z,26.87
2023-05-21T12:05:44.601Z,26.85
2023-05-21T12:06:44.688Z,26.83
2023-05-21T12:07:44.658Z,26.83
2023-05-21T12:08:44.832Z,26.83
2023-05-21T12:09:44.688Z,26.83
2023-05-21T12:10:46.123Z,26.83
2023-05-21T12:11:44.778Z,26.83
2023-05-21T12:12:54.789Z,26.82
2023-05-21T12:13:45.784Z,26.80
2023-05-21T12:14:44.846Z,26.79
2023-05-21T12:15:44.743Z,26.79
2023-05-21T12:16:44.796Z,26.79
2023-05-21T12:17:44.811Z,26.80
2023-05-21T12:18:44.778Z,26.78
2023-05-21T12:19:44.777Z,26.76
2023-05-21T12:20:44.703Z,26.75
2023-05-21T12:21:44.741Z,26.75
2023-05-21T12:22:44.764Z,26.73
2023-05-21T12:23:44.750Z,26.74
2023-05-21T12:24:44.796Z,26.73
2023-05-21T12:25:44.835Z,26.73
2023-05-21T12:26:44.876Z,26.72
2023-05-21T12:27:44.948Z,26.73
2023-05-21T12:28:44.988Z,26.73
2023-05-21T12:29:45.052Z,26.72
2023-05-21T12:30:45.091Z,26.71
2023-05-21T12:31:45.320Z,26.70
2023-05-21T12:32:45.284Z,26.70
2023-05-21T12:33:45.288Z,26.71
2023-05-21T12:34:45.327Z,26.69
2023-05-21T12:35:45.396Z,26.68
2023-05-21T12:36:45.444Z,26.68
2023-05-21T12:37:45.517Z,26.67
2023-05-21T12:38:45.560Z,26.66
2023-05-21T12:39:45.634Z,26.67
2023-05-21T12:40:45.862Z,26.66
2023-05-21T12:41:45.762Z,26.66
2023-05-21T12:42:45.835Z,26.67
2023-05-21T12:43:45.849Z,26.66
2023-05-21T12:44:45.910Z,26.64
2023-05-21T12:45:45.990Z,26.63
2023-05-21T12:46:46.049Z,26.61
2023-05-21T12:47:46.155Z,26.61
2023-05-21T12:48:46.174Z,26.59
2023-05-21T12:49:46.216Z,26.61
2023-05-21T12:50:46.289Z,26.60
2023-05-21T12:51:46.406Z,26.60
2023-05-21T12:52:46.408Z,26.58